createdAt,value
2017-05-20T00:01:57.253Z,37.80
2017-05-20T00:04:25.543Z,38.96
2017-05-20T00:06:53.822Z,38.96
2017-05-20T00:09:22.126Z,37.68
2017-05-20T00:11:50.411Z,40.28
2017-05-20T00:14:18.830Z,38.22
2017-05-20T00:16:47.111Z,41.40
2017-05-20T00:19:15.396Z,43.40
2017-05-20T00:21:43.819Z,40.12
2017-05-20T00:24:12.104Z,44.06
2017-05-20T00:26:40.392Z,41.02
2017-05-20T00:29:08.803Z,42.74
2017-05-20T00:31:37.094Z,41.42
2017-05-20T00:34:05.378Z,43.08
2017-05-20T00:36:33.687Z,43.90
2017-05-20T00:39:01.971Z,42.72
2017-05-20T00:41:30.471Z,40.94
2017-05-20T00:43:58.764Z,42.88
2017-05-20T00:46:27.071Z,42.22
2017-05-20T00:48:55.713Z,45.22
2017-05-20T00:51:24.003Z,45.56
2017-05-20T00:53:52.278Z,44.12
2017-05-20T00:56:20.588Z,39.48
2017-05-20T00:58:48.871Z,40.76
2017-05-20T01:01:17.282Z,41.22
2017-05-20T01:03:45.563Z,41.58
2017-05-20T01:06:13.854Z,42.68
2017-05-20T01:08:42.156Z,42.62
2017-05-20T01:11:10.450Z,43.38
2017-05-20T01:13:39.180Z,44.28
2017-05-20T01:16:07.464Z,48.80
2017-05-20T01:18:35.751Z,47.56
2017-05-20T01:21:04.443Z,45.86
2017-05-20T01:23:32.774Z,43.20
2017-05-20T01:26:01.377Z,42.40
2017-05-20T01:28:29.664Z,39.64
2017-05-20T01:30:57.947Z,39.32
2017-05-20T01:33:26.626Z,38.70
2017-05-20T01:35:54.912Z,35.22
2017-05-20T01:38:23.192Z,39.38
2017-05-20T01:40:51.512Z,36.12
2017-05-20T01:43:19.795Z,34.68
2017-05-20T01:45:48.238Z,29.86
2017-05-20T01:48:16.527Z,30.58
2017-05-20T01:50:44.811Z,30.50
2017-05-20T01:53:13.222Z,29.30
2017-05-20T01:55:41.503Z,25.72
2017-05-20T01:58:09.791Z,28.16
2017-05-20T02:00:38.099Z,28.78
2017-05-20T02:03:06.391Z,24.32
2017-05-20T02:05:34.700Z,24.06
2017-05-20T02:08:02.982Z,27.72
2017-05-20T02:10:31.404Z,22.24
2017-05-20T02:12:59.966Z,25.52
2017-05-20T02:15:28.264Z,24.44
2017-05-20T02:17:56.675Z,24.36
2017-05-20T02:20:24.955Z,23.04
2017-05-20T02:22:53.241Z,25.94
2017-05-20T02:25:21.542Z,26.10
2017-05-20T02:27:49.823Z,25.80
2017-05-20T02:30:18.496Z,27.62
2017-05-20T02:32:46.782Z,27.90
2017-05-20T02:35:15.070Z,29.00
2017-05-20T02:37:43.381Z,27.54
2017-05-20T02:40:11.675Z,32.22
2017-05-20T02:42:40.087Z,30.00
2017-05-20T02:45:08.408Z,30.98
2017-05-20T02:47:36.695Z,36.70
2017-05-20T02:50:05.114Z,36.52
2017-05-20T02:52:33.396Z,39.04
2017-05-20T02:55:01.686Z,37.34
2017-05-20T02:57:30.241Z,38.52
2017-05-20T02:59:58.540Z,41.44
2017-05-20T03:02:26.827Z,44.62
2017-05-20T03:04:55.374Z,44.58
2017-05-20T03:07:23.657Z,49.76
2017-05-20T03:09:51.939Z,46.50
2017-05-20T03:12:20.256Z,47.72
2017-05-20T03:14:48.552Z,52.04
2017-05-20T03:17:16.976Z,45.04
2017-05-20T03:19:45.254Z,48.52
2017-05-20T03:22:13.642Z,56.28
2017-05-20T03:24:41.946Z,56.50
2017-05-20T03:27:10.313Z,47.52
2017-05-20T03:29:38.804Z,48.18
2017-05-20T03:32:07.087Z,46.80
2017-05-20T03:34:35.377Z,48.92
2017-05-20T03:37:03.690Z,50.96
2017-05-20T03:39:31.980Z,51.48
2017-05-20T03:42:00.398Z,53.72
2017-05-20T03:44:28.687Z,55.50
2017-05-20T03:46:56.975Z,59.38
2017-05-20T03:49:25.287Z,55.70
2017-05-20T03:51:53.579Z,58.66
2017-05-20T03:54:22.001Z,57.16
2017-05-20T03:56:50.288Z,50.54
2017-05-20T03:59:18.578Z,58.00
2017-05-20T04:01:46.887Z,60.28
2017-05-20T04:04:16.692Z,61.30
2017-05-20T04:06:45.000Z,63.16
2017-05-20T04:09:13.290Z,57.80
2017-05-20T04:11:41.714Z,67.54
2017-05-20T04:14:10.005Z,66.24
2017-05-20T04:16:38.287Z,67.58
2017-05-20T04:19:06.603Z,67.84
2017-05-20T04:21:34.888Z,62.34
2017-05-20T04:24:03.300Z,58.94
2017-05-20T04:26:31.588Z,59.44
2017-05-20T04:28:59.867Z,44.12
2017-05-20T04:31:28.167Z,46.56
2017-05-20T04:33:56.446Z,52.52
2017-05-20T04:36:24.747Z,44.74
2017-05-20T04:38:53.031Z,42.92
2017-05-20T04:41:21.439Z,51.04
2017-05-20T04:43:49.738Z,51.10
2017-05-20T04:46:18.034Z,46.14
2017-05-20T04:48:46.439Z,45.12
2017-05-20T04:51:14.728Z,47.16
2017-05-20T04:53:43.091Z,52.12
2017-05-20T04:56:11.406Z,51.94
2017-05-20T04:58:39.683Z,45.16
2017-05-20T05:01:08.091Z,43.36
2017-05-20T05:03:36.376Z,45.34
2017-05-20T05:06:04.659Z,45.18
2017-05-20T05:08:32.960Z,46.74
2017-05-20T05:11:01.234Z,45.50
2017-05-20T05:13:29.647Z,43.30
2017-05-20T05:15:57.941Z,49.34
2017-05-20T05:18:26.219Z,42.86
2017-05-20T05:20:54.530Z,49.14
2017-05-20T05:23:22.811Z,53.16
2017-05-20T05:25:51.379Z,50.26
2017-05-20T05:28:19.671Z,44.22
2017-05-20T05:30:47.960Z,47.60
2017-05-20T05:33:16.666Z,45.48
2017-05-20T05:35:44.943Z,41.76
2017-05-20T05:38:13.346Z,44.84
2017-05-20T05:40:41.635Z,45.56
2017-05-20T05:43:09.910Z,44.34
2017-05-20T05:45:38.209Z,46.26
2017-05-20T05:48:06.491Z,45.46
2017-05-20T05:50:34.962Z,43.22
2017-05-20T05:53:03.243Z,42.04
2017-05-20T05:55:31.554Z,46.90
2017-05-20T05:57:59.966Z,47.72
2017-05-20T06:00:28.243Z,43.82
2017-05-20T06:02:56.514Z,44.08
2017-05-20T06:05:24.820Z,42.16
2017-05-20T06:07:53.106Z,44.20
2017-05-20T06:10:21.526Z,43.16
2017-05-20T06:12:50.635Z,41.96
2017-05-20T06:15:18.919Z,39.10
2017-05-20T06:17:47.327Z,43.42
2017-05-20T06:20:15.604Z,46.16
2017-05-20T06:22:43.881Z,45.24
2017-05-20T06:25:12.283Z,44.02
2017-05-20T06:27:40.563Z,43.80
2017-05-20T06:30:08.841Z,37.36
2017-05-20T06:32:37.259Z,37.00
2017-05-20T06:35:05.550Z,38.98
2017-05-20T06:37:33.834Z,37.66
2017-05-20T06:40:02.139Z,35.78
2017-05-20T06:42:30.423Z,34.82
2017-05-20T06:44:58.964Z,34.08
2017-05-20T06:47:27.298Z,32.20
2017-05-20T06:49:55.579Z,34.22
2017-05-20T06:52:23.898Z,33.84
2017-05-20T06:54:52.176Z,34.86
2017-05-20T06:57:20.851Z,33.02
2017-05-20T06:59:49.128Z,36.32
2017-05-20T07:02:17.411Z,35.36
2017-05-20T07:04:46.091Z,33.60
2017-05-20T07:07:14.370Z,30.58
2017-05-20T07:09:42.646Z,31.20
2017-05-20T07:12:11.062Z,28.94
2017-05-20T07:14:39.347Z,31.02
2017-05-20T07:17:07.651Z,33.00
2017-05-20T07:19:36.058Z,28.44
2017-05-20T07:22:04.355Z,27.00
2017-05-20T07:24:32.637Z,27.82
2017-05-20T07:27:01.119Z,25.92
2017-05-20T07:29:29.406Z,28.82
2017-05-20T07:31:57.695Z,28.02
2017-05-20T07:34:26.007Z,25.50
2017-05-20T07:36:54.285Z,29.16
2017-05-20T07:39:22.979Z,25.56
2017-05-20T07:41:51.263Z,24.94
2017-05-20T07:44:19.555Z,23.82
2017-05-20T07:46:47.970Z,22.60
2017-05-20T07:49:16.255Z,24.96
2017-05-20T07:51:44.568Z,22.48
2017-05-20T07:54:12.883Z,22.66
2017-05-20T07:56:41.164Z,24.24
2017-05-20T07:59:10.116Z,21.30
2017-05-20T08:01:38.403Z,22.00
2017-05-20T08:04:06.690Z,23.26
2017-05-20T08:06:34.995Z,22.14
2017-05-20T08:09:03.276Z,21.76
2017-05-20T08:11:31.685Z,22.12
2017-05-20T08:13:59.975Z,21.44
2017-05-20T08:16:28.255Z,20.40
2017-05-20T08:18:56.671Z,20.12
2017-05-20T08:21:24.952Z,18.80
2017-05-20T08:23:53.235Z,17.04
2017-05-20T08:26:21.542Z,19.48
2017-05-20T08:28:49.832Z,17.58
2017-05-20T08:31:18.247Z,16.54
2017-05-20T08:33:46.549Z,18.48
2017-05-20T08:36:15.584Z,18.26
2017-05-20T08:38:44.571Z,17.46
2017-05-20T08:41:12.912Z,17.66
2017-05-20T08:43:41.225Z,17.02
2017-05-20T08:46:09.535Z,17.62
2017-05-20T08:48:37.916Z,17.00
2017-05-20T08:51:06.330Z,16.54
2017-05-20T08:53:34.927Z,15.44
2017-05-20T08:56:04.437Z,13.70
2017-05-20T08:58:32.883Z,13.64
2017-05-20T09:01:01.178Z,12.66
2017-05-20T09:03:29.478Z,12.88
2017-05-20T09:05:57.771Z,12.26
2017-05-20T09:08:26.188Z,12.12
2017-05-20T09:10:54.475Z,10.84
2017-05-20T09:13:22.764Z,11.88
2017-05-20T09:15:51.068Z,10.74
2017-05-20T09:18:19.351Z,12.76
2017-05-20T09:20:47.659Z,13.00
2017-05-20T09:23:15.946Z,12.30
2017-05-20T09:25:44.375Z,12.88
2017-05-20T09:28:12.668Z,13.72
2017-05-20T09:30:40.961Z,12.50
2017-05-20T09:33:09.263Z,16.02
2017-05-20T09:35:37.552Z,12.06
2017-05-20T09:38:06.215Z,11.04
2017-05-20T09:40:34.507Z,11.78
2017-05-20T09:43:02.807Z,10.18
2017-05-20T09:45:31.111Z,10.28
2017-05-20T09:47:59.387Z,10.68
2017-05-20T09:50:28.182Z,11.16
2017-05-20T09:52:56.460Z,11.78
2017-05-20T09:55:24.736Z,9.18
2017-05-20T09:57:53.038Z,9.00
2017-05-20T10:00:21.315Z,10.06
2017-05-20T10:02:50.014Z,8.60
2017-05-20T10:05:18.282Z,8.36
2017-05-20T10:07:46.566Z,8.52
2017-05-20T10:10:14.859Z,9.42
2017-05-20T10:12:43.131Z,8.72
2017-05-20T10:15:11.606Z,8.58
2017-05-20T10:17:39.888Z,10.68
2017-05-20T10:20:08.163Z,9.56
2017-05-20T10:22:36.467Z,9.80
2017-05-20T10:25:04.745Z,9.78
2017-05-20T10:27:33.282Z,10.82
2017-05-20T10:30:01.566Z,9.64
2017-05-20T10:32:29.858Z,10.34
2017-05-20T10:34:58.267Z,10.12
2017-05-20T10:37:26.551Z,11.46
2017-05-20T10:39:54.827Z,9.60
2017-05-20T10:42:23.139Z,13.00
2017-05-20T10:44:51.419Z,11.68
2017-05-20T10:47:19.737Z,9.84
2017-05-20T10:49:48.019Z,13.44
2017-05-20T10:52:16.422Z,11.10
2017-05-20T10:54:44.706Z,10.08
2017-05-20T10:57:12.982Z,9.28
2017-05-20T10:59:42.221Z,10.02
2017-05-20T11:02:10.515Z,11.42
2017-05-20T11:04:38.794Z,12.32
2017-05-20T11:07:07.223Z,13.22
2017-05-20T11:09:35.510Z,12.40
2017-05-20T11:12:03.806Z,11.92
2017-05-20T11:14:32.107Z,11.76
2017-05-20T11:17:00.386Z,11.16
2017-05-20T11:19:28.794Z,12.30
2017-05-20T11:21:57.070Z,11.70
2017-05-20T11:24:25.350Z,11.06
2017-05-20T11:26:53.655Z,11.74
2017-05-20T11:29:21.932Z,10.32
2017-05-20T11:31:50.243Z,14.14
2017-05-20T11:34:18.528Z,14.68
2017-05-20T11:36:47.169Z,12.76
2017-05-20T11:39:15.452Z,14.82
2017-05-20T11:41:43.742Z,16.38
2017-05-20T11:44:12.039Z,16.40
2017-05-20T11:46:40.319Z,11.94
2017-05-20T11:49:08.945Z,13.68
2017-05-20T11:51:37.228Z,18.84
2017-05-20T11:54:05.507Z,20.20
2017-05-20T11:56:33.919Z,17.74
2017-05-20T11:59:02.205Z,16.04
2017-05-20T12:01:30.496Z,19.00
2017-05-20T12:03:58.798Z,26.64
2017-05-20T12:06:27.078Z,27.34
2017-05-20T12:08:55.490Z,29.06
2017-05-20T12:11:23.767Z,32.76
2017-05-20T12:13:52.048Z,25.48
2017-05-20T12:16:20.351Z,19.90
2017-05-20T12:18:48.634Z,21.50
2017-05-20T12:21:17.279Z,15.84
2017-05-20T12:23:45.575Z,25.58
2017-05-20T12:28:48.643Z,17.02
2017-05-20T12:31:16.928Z,17.24
2017-05-20T12:33:45.230Z,29.16
2017-05-20T12:36:13.532Z,29.12
2017-05-20T12:38:41.934Z,20.94
2017-05-20T12:41:10.205Z,24.18
2017-05-20T12:43:38.487Z,21.30
2017-05-20T12:46:06.796Z,29.70
2017-05-20T12:48:35.087Z,29.54
2017-05-20T12:51:03.815Z,22.34
2017-05-20T12:53:32.101Z,24.76
2017-05-20T12:56:00.379Z,20.94
2017-05-20T12:58:28.793Z,30.04
2017-05-20T13:00:57.087Z,30.42
2017-05-20T13:03:25.374Z,23.50
2017-05-20T13:05:53.788Z,32.86
2017-05-20T13:08:22.070Z,35.74
2017-05-20T13:10:50.353Z,21.94
2017-05-20T13:13:18.783Z,32.80
2017-05-20T13:15:47.095Z,25.22
2017-05-20T13:18:15.394Z,28.26
2017-05-20T13:20:43.812Z,18.84
2017-05-20T13:23:12.123Z,18.30
2017-05-20T13:25:40.402Z,19.82
2017-05-20T13:28:08.904Z,20.34
2017-05-20T13:30:37.187Z,20.18
2017-05-20T13:33:05.475Z,15.14
2017-05-20T13:35:33.887Z,16.00
2017-05-20T13:38:02.173Z,11.62
2017-05-20T13:40:30.471Z,14.06
2017-05-20T13:42:58.900Z,13.48
2017-05-20T13:45:27.187Z,12.46
2017-05-20T13:47:55.475Z,12.78
2017-05-20T13:50:23.902Z,13.84
2017-05-20T13:52:52.199Z,18.02
2017-05-20T13:55:21.209Z,14.70
2017-05-20T13:57:49.527Z,18.18
2017-05-20T14:00:17.813Z,14.90
2017-05-20T14:02:46.227Z,14.66
2017-05-20T14:05:14.524Z,14.84
2017-05-20T14:07:42.826Z,15.08
2017-05-20T14:10:11.613Z,13.86
2017-05-20T14:12:39.899Z,13.30
2017-05-20T14:15:08.184Z,12.98
2017-05-20T14:17:36.516Z,14.02
2017-05-20T14:20:04.865Z,10.68
2017-05-20T14:22:33.276Z,13.60
2017-05-20T14:25:01.564Z,16.66
2017-05-20T14:27:29.851Z,15.22
2017-05-20T14:29:58.196Z,13.60
2017-05-20T14:32:26.487Z,16.82
2017-05-20T14:34:54.899Z,13.82
2017-05-20T14:37:23.205Z,13.62
2017-05-20T14:39:51.499Z,12.02
2017-05-20T14:42:19.807Z,14.34
2017-05-20T14:44:48.083Z,12.92
2017-05-20T14:47:16.664Z,14.52
2017-05-20T14:49:44.969Z,15.34
2017-05-20T14:52:13.258Z,13.80
2017-05-20T14:54:41.564Z,13.50
2017-05-20T14:57:09.844Z,12.56
2017-05-20T14:59:38.261Z,14.30
2017-05-20T15:02:06.548Z,14.66
2017-05-20T15:04:34.838Z,16.84
2017-05-20T15:07:03.158Z,16.72
2017-05-20T15:09:31.453Z,13.52
2017-05-20T15:11:59.964Z,16.34
2017-05-20T15:14:28.289Z,17.38
2017-05-20T15:16:56.616Z,19.64
2017-05-20T15:19:25.057Z,12.80
2017-05-20T15:21:53.355Z,13.74
2017-05-20T15:24:21.648Z,12.48
2017-05-20T15:26:50.068Z,11.52
2017-05-20T15:29:18.356Z,10.44
2017-05-20T15:31:46.651Z,11.46
2017-05-20T15:34:15.067Z,10.90
2017-05-20T15:36:43.363Z,10.10
2017-05-20T15:39:11.707Z,11.14
2017-05-20T15:41:40.011Z,14.38
2017-05-20T15:44:08.307Z,13.62
2017-05-20T15:46:36.735Z,11.52
2017-05-20T15:49:04.255Z,11.92
2017-05-20T15:51:32.535Z,9.78
2017-05-20T15:54:01.209Z,9.00
2017-05-20T15:56:29.490Z,10.12
2017-05-20T15:58:57.915Z,10.48
2017-05-20T16:01:26.194Z,8.44
2017-05-20T16:03:54.469Z,8.72
2017-05-20T16:06:22.775Z,9.64
2017-05-20T16:08:51.067Z,9.70
2017-05-20T16:11:19.639Z,10.42
2017-05-20T16:13:47.924Z,9.58
2017-05-20T16:16:16.211Z,11.48
2017-05-20T16:18:44.633Z,12.12
2017-05-20T16:21:12.914Z,12.50
2017-05-20T16:23:41.196Z,10.36
2017-05-20T16:26:09.503Z,12.08
2017-05-20T16:28:37.787Z,13.90
2017-05-20T16:31:06.098Z,11.80
2017-05-20T16:33:34.384Z,11.54
2017-05-20T16:36:02.828Z,9.74
2017-05-20T16:38:31.129Z,12.78
2017-05-20T16:40:59.402Z,9.42
2017-05-20T16:43:27.911Z,10.78
2017-05-20T16:45:56.196Z,10.62
2017-05-20T16:48:25.195Z,9.36
2017-05-20T16:50:53.494Z,9.18
2017-05-20T16:53:21.780Z,10.22
2017-05-20T16:55:50.083Z,11.84
2017-05-20T16:58:18.364Z,8.40
2017-05-20T17:00:46.776Z,10.62
2017-05-20T17:03:15.067Z,13.46
2017-05-20T17:05:43.364Z,10.86
2017-05-20T17:08:11.676Z,12.56
2017-05-20T17:10:39.983Z,15.00
2017-05-20T17:13:08.603Z,15.32
2017-05-20T17:15:36.887Z,13.26
2017-05-20T17:18:05.187Z,12.96
2017-05-20T17:20:33.490Z,14.32
2017-05-20T17:23:01.763Z,12.70
2017-05-20T17:25:30.175Z,11.92
2017-05-20T17:27:58.459Z,13.82
2017-05-20T17:30:26.742Z,14.42
2017-05-20T17:32:55.169Z,14.74
2017-05-20T17:35:23.455Z,14.76
2017-05-20T17:37:51.744Z,12.72
2017-05-20T17:40:20.049Z,13.76
2017-05-20T17:42:48.338Z,13.96
2017-05-20T17:45:16.916Z,13.52
2017-05-20T17:47:45.204Z,18.74
2017-05-20T17:50:13.486Z,12.90
2017-05-20T17:52:41.798Z,16.90
2017-05-20T17:55:10.089Z,12.60
2017-05-20T17:57:38.536Z,12.38
2017-05-20T18:00:06.832Z,9.66
2017-05-20T18:02:35.112Z,8.78
2017-05-20T18:05:03.730Z,11.92
2017-05-20T18:07:32.020Z,15.02
2017-05-20T18:10:00.302Z,10.06
2017-05-20T18:12:28.607Z,11.78
2017-05-20T18:14:56.888Z,12.66
2017-05-20T18:17:25.332Z,9.76
2017-05-20T18:19:53.631Z,10.02
2017-05-20T18:22:21.962Z,9.68
2017-05-20T18:24:50.639Z,10.62
2017-05-20T18:27:18.927Z,10.70
2017-05-20T18:29:47.244Z,9.66
2017-05-20T18:32:15.943Z,9.74
2017-05-20T18:34:44.243Z,10.56
2017-05-20T18:37:12.559Z,8.98
2017-05-20T18:39:40.935Z,8.56
2017-05-20T18:42:09.218Z,7.68
2017-05-20T18:44:37.514Z,6.22
2017-05-20T18:47:05.791Z,11.30
2017-05-20T18:49:34.267Z,10.26
2017-05-20T18:52:02.546Z,10.66
2017-05-20T18:54:30.831Z,8.18
2017-05-20T18:56:59.426Z,8.80
2017-05-20T18:59:27.716Z,8.60
2017-05-20T19:01:55.994Z,8.80
2017-05-20T19:04:24.299Z,7.50
2017-05-20T19:06:52.584Z,9.26
2017-05-20T19:09:20.885Z,8.56
2017-05-20T19:11:49.158Z,6.68
2017-05-20T19:14:17.451Z,6.76
2017-05-20T19:16:45.954Z,8.22
2017-05-20T19:19:14.241Z,11.72
2017-05-20T19:21:42.585Z,10.98
2017-05-20T19:24:10.908Z,12.08
2017-05-20T19:26:39.183Z,9.98
2017-05-20T19:29:07.596Z,15.10
2017-05-20T19:31:35.880Z,11.22
2017-05-20T19:34:04.170Z,10.98
2017-05-20T19:36:32.697Z,11.64
2017-05-20T19:39:00.986Z,11.12
2017-05-20T19:41:29.263Z,10.76
2017-05-20T19:43:58.014Z,11.30
2017-05-20T19:46:26.295Z,9.54
2017-05-20T19:48:54.572Z,8.90
2017-05-20T19:51:23.079Z,10.00
2017-05-20T19:53:51.359Z,10.52
2017-05-20T19:56:19.643Z,10.90
2017-05-20T19:58:47.963Z,11.82
2017-05-20T20:01:16.242Z,10.08
2017-05-20T20:03:44.543Z,11.14
2017-05-20T20:06:12.823Z,11.72
2017-05-20T20:08:41.351Z,9.38
2017-05-20T20:11:09.651Z,8.92
2017-05-20T20:13:37.931Z,9.96
2017-05-20T20:16:06.393Z,8.28
2017-05-20T20:18:34.725Z,7.06
2017-05-20T20:21:02.990Z,9.10
2017-05-20T20:23:31.279Z,8.96
2017-05-20T20:25:59.562Z,10.20
2017-05-20T20:28:28.211Z,10.52
2017-05-20T20:30:56.486Z,8.56
2017-05-20T20:33:24.775Z,11.36
2017-05-20T20:35:53.239Z,10.76
2017-05-20T20:38:21.635Z,10.34
2017-05-20T20:40:49.996Z,10.54
2017-05-20T20:43:18.295Z,9.28
2017-05-20T20:45:46.582Z,10.72
2017-05-20T20:48:15.236Z,9.44
2017-05-20T20:50:43.520Z,10.46
2017-05-20T20:53:11.800Z,11.04
2017-05-20T20:55:40.102Z,11.38
2017-05-20T20:58:08.387Z,11.18
2017-05-20T21:00:36.815Z,12.36
2017-05-20T21:03:05.108Z,11.40
2017-05-20T21:05:33.405Z,14.32
2017-05-20T21:08:01.706Z,11.66
2017-05-20T21:10:29.987Z,14.20
2017-05-20T21:12:58.607Z,12.04
2017-05-20T21:15:26.907Z,12.20
2017-05-20T21:17:55.191Z,12.08
2017-05-20T21:20:23.499Z,11.70
2017-05-20T21:22:51.779Z,12.42
2017-05-20T21:25:20.291Z,12.50
2017-05-20T21:27:48.572Z,10.74
2017-05-20T21:30:16.855Z,11.40
2017-05-20T21:32:45.523Z,16.58
2017-05-20T21:35:13.807Z,14.92
2017-05-20T21:37:42.098Z,15.68
2017-05-20T21:40:10.408Z,16.54
2017-05-20T21:42:38.696Z,14.88
2017-05-20T21:45:07.208Z,14.28
2017-05-20T21:47:35.499Z,14.46
2017-05-20T21:50:03.778Z,15.76
2017-05-20T21:52:32.095Z,18.26
2017-05-20T21:55:00.386Z,17.72
2017-05-20T21:57:28.691Z,16.96
2017-05-20T21:59:56.975Z,16.88
2017-05-20T22:02:25.401Z,14.34
2017-05-20T22:04:53.691Z,15.92
2017-05-20T22:07:21.974Z,13.22
2017-05-20T22:09:50.281Z,13.12
2017-05-20T22:12:18.569Z,13.36
2017-05-20T22:14:46.986Z,12.70
2017-05-20T22:17:15.286Z,12.86
2017-05-20T22:19:43.570Z,12.16
2017-05-20T22:22:11.879Z,11.80
2017-05-20T22:24:40.163Z,14.06
2017-05-20T22:27:08.592Z,13.80
2017-05-20T22:29:36.872Z,12.64
2017-05-20T22:32:05.150Z,13.26
2017-05-20T22:34:33.453Z,13.36
2017-05-20T22:37:01.734Z,13.48
2017-05-20T22:39:30.395Z,14.34
2017-05-20T22:41:58.780Z,14.50
2017-05-20T22:44:27.059Z,15.42
2017-05-20T22:46:55.360Z,15.06
2017-05-20T22:49:23.635Z,13.92
2017-05-20T22:51:52.040Z,12.30
2017-05-20T22:54:20.323Z,15.22
2017-05-20T22:56:48.607Z,13.76
2017-05-20T22:59:16.932Z,14.02
2017-05-20T23:01:45.216Z,14.56
2017-05-20T23:04:13.663Z,12.56
2017-05-20T23:06:42.655Z,15.58
2017-05-20T23:09:10.943Z,15.96
2017-05-20T23:11:39.250Z,16.78
2017-05-20T23:14:07.527Z,15.48
2017-05-20T23:16:36.176Z,15.28
2017-05-20T23:19:04.462Z,14.74
2017-05-20T23:21:32.739Z,15.72
2017-05-20T23:24:01.043Z,14.34
2017-05-20T23:26:29.328Z,14.08
2017-05-20T23:28:57.752Z,16.24
2017-05-20T23:31:26.050Z,15.08
2017-05-20T23:33:54.336Z,18.18
2017-05-20T23:36:22.650Z,19.40
2017-05-20T23:38:50.950Z,20.62
2017-05-20T23:41:19.400Z,17.58
2017-05-20T23:43:47.691Z,17.98
2017-05-20T23:46:15.967Z,18.30
2017-05-20T23:48:44.671Z,17.66
2017-05-20T23:51:12.955Z,15.84
2017-05-20T23:53:41.243Z,16.90
2017-05-20T23:56:09.562Z,17.94
2017-05-20T23:58:37.848Z,16.70
